Etusivu
METAR-TAF:

METAR-TAF

Lentoasemat :

Ankara Esenboğa, Turkki

Leveyspiiri: 40-07N, Pituuspiiri: 032-59E, korkeus merenpinnasta: 953 m

Tämänhetkinen sää

Tämä raportti tehtiin 43 minuuttia sitten, kello 03.50 UTC
tyyntä
Lämpötila 1°C
Kosteus 69%
Ilmanpaine 1021 hPa
Näkyvyys 10 km tai enemmän
ei pilviä alle 1500 m:ssä eikä cumulonimbus-pilviä

METAR: LTAC 130350Z 00000KT CAVOK 01/M04 Q1021 NOSIG RMK RWY21L 01003KT RWY03L 05002KT RWY21R 00000KT

Aika: 07:33 (04:33 UTC)

Sääennuste

Tämä raportti tehtiin 5 tuntia ja 53 minuuttia sitten, kello 22.40 UTC
Ennuste voimassa 13. päivästä klo 00 UTC - 13. päivään klo 24 UTC
Tuuli 2 kn eri suunnista
Näkyvyys 10 km tai enemmän
ei pilviä alle 1500 m:ssä eikä cumulonimbus-pilviä

TAF: LTAC 122240Z 1300/1324 VRB02KT CAVOK

Säähavainnot ja -ennusteet yli 4000 lentoasemalta (METAR- ja TAF-raportit).

Käytössä olevat sääasemat on merkitty karttaan keltaisilla ja punaisilla pisteillä.

Aseta hiiri pisteen päälle nähdäksesi sääaseman nimen.

Klikkaa sitten nähdäksesi säähavainnot ja -ennusteet.

Kartan vaihtaminen: klikkaa mustalla rastilla varustettuja vihreitä pisteitä, niin voit zoomata sisään; viivalla varustettua vihreää pistettä, niin voit zoomata ulos tai vihreitä nuolia, niin pääset viereisille kartoille.


METAR-TAF: